createdAt,value
2019-04-30T00:01:48.482Z,24.47
2019-04-30T00:04:15.774Z,25.46
2019-04-30T00:06:42.145Z,25.62
2019-04-30T00:09:15.116Z,24.64
2019-04-30T00:11:38.214Z,24.18
2019-04-30T00:14:05.625Z,23.83
2019-04-30T00:16:36.310Z,24.93
2019-04-30T00:19:00.831Z,24.80
2019-04-30T00:21:27.328Z,24.83
2019-04-30T00:23:53.539Z,25.38
2019-04-30T00:26:19.719Z,25.31
2019-04-30T00:28:47.721Z,25.49
2019-04-30T00:31:17.430Z,24.82
2019-04-30T00:33:42.053Z,24.35
2019-04-30T00:36:08.586Z,24.19
2019-04-30T00:38:37.805Z,24.23
2019-04-30T00:41:06.825Z,24.23
2019-04-30T00:43:31.142Z,24.23
2019-04-30T00:45:57.341Z,23.83
2019-04-30T00:48:28.087Z,22.95
2019-04-30T00:50:51.572Z,22.95
2019-04-30T00:53:17.766Z,23.08
2019-04-30T00:55:46.796Z,23.83
2019-04-30T00:58:12.008Z,24.43
2019-04-30T01:00:45.187Z,24.55
2019-04-30T01:03:13.374Z,24.48
2019-04-30T01:05:43.862Z,24.38
2019-04-30T01:08:08.354Z,24.02
2019-04-30T01:10:34.871Z,24.10
2019-04-30T01:13:08.067Z,24.42
2019-04-30T01:15:29.407Z,24.31
2019-04-30T01:17:55.560Z,23.73
2019-04-30T01:20:24.153Z,23.98
2019-04-30T01:22:51.826Z,23.81
2019-04-30T01:25:18.715Z,23.90
2019-04-30T01:27:46.857Z,23.96
2019-04-30T01:30:17.381Z,23.84
2019-04-30T01:32:41.121Z,23.78
2019-04-30T01:35:08.913Z,22.96
2019-04-30T01:37:35.281Z,23.08
2019-04-30T01:40:03.160Z,24.05
2019-04-30T01:42:31.010Z,24.44
2019-04-30T01:44:58.903Z,24.61
2019-04-30T01:47:27.655Z,24.50
2019-04-30T01:49:55.884Z,24.73
2019-04-30T01:52:21.419Z,24.82
2019-04-30T01:54:49.018Z,24.95
2019-04-30T01:57:26.137Z,25.14
2019-04-30T02:00:03.115Z,25.26
2019-04-30T02:02:31.201Z,24.57
2019-04-30T02:04:59.097Z,23.90
2019-04-30T02:07:25.545Z,24.27
2019-04-30T02:09:51.836Z,24.87
2019-04-30T02:12:21.678Z,25.14
2019-04-30T02:14:46.197Z,23.74
2019-04-30T02:17:12.390Z,24.40
2019-04-30T02:19:39.090Z,24.31
2019-04-30T02:22:05.424Z,24.11
2019-04-30T02:24:31.634Z,24.11
2019-04-30T02:26:59.384Z,23.54
2019-04-30T02:29:25.670Z,23.53
2019-04-30T02:31:51.869Z,22.86
2019-04-30T02:34:22.196Z,22.73
2019-04-30T02:37:04.835Z,22.65
2019-04-30T02:39:31.017Z,22.63
2019-04-30T02:41:59.964Z,22.15
2019-04-30T02:44:26.068Z,23.18
2019-04-30T02:46:55.853Z,23.26
2019-04-30T02:49:24.314Z,23.38
2019-04-30T02:51:53.629Z,23.09
2019-04-30T02:54:24.021Z,23.28
2019-04-30T02:56:52.464Z,23.72
2019-04-30T02:59:20.198Z,23.31
2019-04-30T03:01:46.741Z,23.28
2019-04-30T03:04:12.918Z,23.16
2019-04-30T03:06:40.146Z,23.29
2019-04-30T03:09:10.005Z,23.58
2019-04-30T03:11:35.295Z,23.54
2019-04-30T03:14:01.601Z,23.54
2019-04-30T03:16:30.307Z,23.70
2019-04-30T03:19:01.184Z,24.09
2019-04-30T03:21:44.326Z,24.18
2019-04-30T03:24:11.080Z,24.01
2019-04-30T03:26:40.079Z,24.29
2019-04-30T03:29:05.675Z,24.53
2019-04-30T03:31:32.516Z,24.70
2019-04-30T03:34:01.944Z,25.22
2019-04-30T03:36:27.380Z,25.61
2019-04-30T03:38:54.647Z,25.73
2019-04-30T03:41:20.795Z,25.68
2019-04-30T03:43:46.992Z,26.17
2019-04-30T03:46:13.183Z,26.32
2019-04-30T03:48:39.688Z,26.23
2019-04-30T03:51:06.079Z,26.25
2019-04-30T03:53:32.954Z,26.22
2019-04-30T03:56:01.426Z,26.28
2019-04-30T03:58:29.241Z,25.76
2019-04-30T04:01:00.165Z,25.56
2019-04-30T04:03:25.259Z,26.37
2019-04-30T04:05:53.354Z,26.75
2019-04-30T04:08:24.064Z,27.38
2019-04-30T04:11:00.455Z,28.15
2019-04-30T04:13:25.871Z,29.21
2019-04-30T04:15:52.156Z,31.15
2019-04-30T04:18:20.206Z,32.95
2019-04-30T04:20:46.523Z,34.19
2019-04-30T04:23:12.695Z,32.30
2019-04-30T04:25:40.003Z,30.07
2019-04-30T04:28:06.388Z,31.02
2019-04-30T04:30:32.671Z,30.51
2019-04-30T04:32:59.912Z,31.00
2019-04-30T04:35:26.335Z,32.14
2019-04-30T04:37:52.517Z,32.91
2019-04-30T04:40:21.062Z,32.49
2019-04-30T04:42:49.051Z,31.15
2019-04-30T04:45:14.863Z,29.64
2019-04-30T04:47:41.047Z,30.34
2019-04-30T04:50:10.034Z,31.28
2019-04-30T04:52:36.248Z,33.28
2019-04-30T04:55:04.831Z,33.05
2019-04-30T04:57:30.986Z,32.71
2019-04-30T05:00:00.454Z,34.47
2019-04-30T05:02:32.130Z,35.19
2019-04-30T05:04:55.949Z,33.02
2019-04-30T05:07:22.126Z,32.75
2019-04-30T05:09:48.942Z,33.48
2019-04-30T05:12:15.267Z,34.15
2019-04-30T05:14:41.457Z,32.04
2019-04-30T05:17:09.443Z,30.76
2019-04-30T05:19:35.778Z,32.13
2019-04-30T05:22:01.930Z,33.09
2019-04-30T05:24:28.676Z,31.69
2019-04-30T05:26:54.897Z,32.64
2019-04-30T05:29:21.072Z,32.82
2019-04-30T05:31:48.552Z,33.10
2019-04-30T05:34:15.039Z,35.08
2019-04-30T05:36:41.293Z,34.27
2019-04-30T05:39:08.673Z,33.97
2019-04-30T05:41:34.988Z,32.77
2019-04-30T05:44:01.151Z,34.02
2019-04-30T05:46:29.627Z,32.50
2019-04-30T05:48:55.532Z,34.27
2019-04-30T05:51:21.703Z,35.48
2019-04-30T05:53:49.195Z,34.75
2019-04-30T05:56:15.578Z,34.85
2019-04-30T05:58:41.769Z,34.33
2019-04-30T06:01:09.677Z,35.56
2019-04-30T06:03:36.162Z,37.39
2019-04-30T06:06:02.316Z,36.74
2019-04-30T06:08:30.404Z,36.12
2019-04-30T06:13:49.233Z,36.30
2019-04-30T06:16:18.819Z,34.10
2019-04-30T06:18:45.279Z,34.23
2019-04-30T06:21:11.483Z,33.09
2019-04-30T06:23:39.319Z,33.64
2019-04-30T06:26:09.904Z,34.12
2019-04-30T06:28:34.174Z,34.37
2019-04-30T06:31:00.457Z,34.69
2019-04-30T06:33:26.616Z,32.60
2019-04-30T06:35:52.918Z,31.64
2019-04-30T06:38:20.654Z,34.13
2019-04-30T06:40:48.876Z,36.44
2019-04-30T06:43:15.662Z,33.34
2019-04-30T06:45:42.825Z,33.39
2019-04-30T06:48:10.897Z,31.03
2019-04-30T06:50:39.169Z,32.25
2019-04-30T06:53:05.315Z,32.61
2019-04-30T06:55:31.500Z,32.20
2019-04-30T06:58:11.438Z,31.64
2019-04-30T07:00:35.614Z,31.41
2019-04-30T07:03:01.949Z,31.65
2019-04-30T07:05:28.639Z,31.80
2019-04-30T07:08:13.202Z,32.61
2019-04-30T07:10:41.413Z,32.80
2019-04-30T07:13:21.736Z,32.60
2019-04-30T07:15:48.986Z,31.49
2019-04-30T07:18:15.489Z,32.64
2019-04-30T07:20:41.792Z,33.40
2019-04-30T07:23:09.331Z,33.13
2019-04-30T07:25:35.642Z,30.53
2019-04-30T07:28:01.854Z,31.20
2019-04-30T07:30:30.643Z,32.72
2019-04-30T07:32:56.085Z,33.25
2019-04-30T07:35:22.294Z,32.06
2019-04-30T07:37:49.765Z,31.24
2019-04-30T07:40:16.679Z,33.06
2019-04-30T07:42:45.086Z,32.60
2019-04-30T07:45:11.050Z,33.21
2019-04-30T07:47:39.234Z,31.36
2019-04-30T07:50:06.281Z,30.72
2019-04-30T07:52:35.347Z,31.76
2019-04-30T07:55:04.435Z,33.04
2019-04-30T07:57:32.321Z,32.69
2019-04-30T08:00:00.493Z,32.90
2019-04-30T08:02:29.753Z,33.28
2019-04-30T08:04:59.882Z,31.29
2019-04-30T08:07:26.383Z,32.45
2019-04-30T08:09:52.642Z,32.84
2019-04-30T08:12:26.347Z,31.43
2019-04-30T08:14:49.429Z,32.83
2019-04-30T08:17:14.995Z,32.49
2019-04-30T08:19:41.254Z,31.66
2019-04-30T08:22:09.510Z,32.48
2019-04-30T08:24:35.547Z,32.52
2019-04-30T08:27:01.736Z,33.86
2019-04-30T08:29:29.483Z,33.66
2019-04-30T08:31:55.778Z,32.96
2019-04-30T08:34:22.141Z,34.55
2019-04-30T08:36:48.943Z,35.04
2019-04-30T08:39:15.279Z,33.74
2019-04-30T08:41:42.400Z,34.23
2019-04-30T08:44:09.407Z,34.21
2019-04-30T08:46:35.952Z,34.74
2019-04-30T08:49:02.244Z,33.57
2019-04-30T08:51:30.908Z,34.37
2019-04-30T08:53:58.540Z,35.92
2019-04-30T08:56:25.579Z,35.43
2019-04-30T08:58:51.751Z,34.42
2019-04-30T09:01:19.558Z,35.20
2019-04-30T09:03:46.130Z,34.06
2019-04-30T09:06:14.196Z,34.27
2019-04-30T09:08:40.376Z,34.66
2019-04-30T09:11:20.155Z,34.06
2019-04-30T09:13:34.655Z,34.29
2019-04-30T09:16:00.910Z,35.69
2019-04-30T09:18:29.028Z,35.83
2019-04-30T09:21:03.447Z,35.29
2019-04-30T09:23:23.383Z,35.94
2019-04-30T09:25:49.842Z,36.17
2019-04-30T09:28:16.273Z,36.61
2019-04-30T09:30:42.438Z,36.98
2019-04-30T09:33:10.921Z,35.81
2019-04-30T09:35:36.727Z,33.63
2019-04-30T09:38:02.904Z,33.20
2019-04-30T09:40:32.312Z,35.44
2019-04-30T09:42:58.537Z,35.53
2019-04-30T09:45:25.235Z,35.77
2019-04-30T09:47:51.547Z,35.49
2019-04-30T09:50:18.831Z,33.70
2019-04-30T09:52:45.415Z,33.16
2019-04-30T09:55:11.966Z,35.12
2019-04-30T09:57:39.029Z,34.42
2019-04-30T10:00:07.165Z,34.64
2019-04-30T10:02:33.370Z,35.08
2019-04-30T10:05:00.026Z,35.43
2019-04-30T10:07:26.584Z,36.55
2019-04-30T10:09:52.905Z,35.70
2019-04-30T10:12:19.655Z,35.92
2019-04-30T10:14:46.220Z,33.95
2019-04-30T10:17:26.381Z,34.34
2019-04-30T10:19:52.559Z,35.88
2019-04-30T10:22:18.824Z,35.11
2019-04-30T10:24:45.043Z,36.08
2019-04-30T10:27:13.464Z,36.43
2019-04-30T10:29:41.223Z,37.42
2019-04-30T10:32:08.816Z,36.45
2019-04-30T10:34:35.279Z,36.61
2019-04-30T10:37:02.932Z,38.11
2019-04-30T10:39:30.573Z,35.41
2019-04-30T10:41:56.712Z,34.17
2019-04-30T10:44:22.868Z,34.63
2019-04-30T10:46:49.071Z,36.12
2019-04-30T10:49:15.272Z,37.31
2019-04-30T10:51:41.431Z,38.28
2019-04-30T10:54:08.794Z,37.01
2019-04-30T10:56:35.272Z,35.05
2019-04-30T10:59:01.604Z,35.35
2019-04-30T11:01:29.179Z,34.73
2019-04-30T11:03:55.675Z,33.16
2019-04-30T11:06:21.853Z,32.82
2019-04-30T11:08:48.042Z,33.51
2019-04-30T11:11:14.217Z,32.99
2019-04-30T11:13:40.381Z,32.03
2019-04-30T11:16:14.733Z,31.66
2019-04-30T11:18:34.727Z,32.54
2019-04-30T11:21:01.336Z,32.87
2019-04-30T11:23:29.636Z,31.73
2019-04-30T11:25:56.610Z,33.50
2019-04-30T11:28:23.804Z,32.60
2019-04-30T11:30:52.742Z,33.38
2019-04-30T11:33:19.302Z,30.85
2019-04-30T11:35:45.901Z,31.53
2019-04-30T11:38:12.100Z,32.07
2019-04-30T11:40:39.904Z,30.79
2019-04-30T11:43:06.445Z,33.38
2019-04-30T11:45:54.419Z,32.66
2019-04-30T11:48:20.590Z,31.29
2019-04-30T11:50:46.874Z,29.99
2019-04-30T11:53:24.584Z,31.04
2019-04-30T11:55:41.254Z,31.35
2019-04-30T11:58:07.428Z,31.05
2019-04-30T12:00:35.828Z,30.47
2019-04-30T12:03:02.009Z,32.33
2019-04-30T12:05:28.970Z,32.03
2019-04-30T12:07:59.845Z,28.13
2019-04-30T12:10:30.661Z,26.28
2019-04-30T12:12:58.675Z,25.80
2019-04-30T12:15:29.151Z,25.70
2019-04-30T12:17:55.604Z,24.52
2019-04-30T12:20:21.781Z,24.97
2019-04-30T12:22:49.317Z,24.83
2019-04-30T12:25:15.937Z,25.34
2019-04-30T12:27:42.123Z,24.72
2019-04-30T12:30:09.214Z,23.64
2019-04-30T12:32:35.503Z,23.05
2019-04-30T12:35:02.384Z,22.40
2019-04-30T12:37:29.065Z,22.59
2019-04-30T12:39:55.439Z,21.96
2019-04-30T12:42:21.932Z,22.52
2019-04-30T12:44:49.554Z,22.38
2019-04-30T12:47:15.904Z,22.12
2019-04-30T12:50:02.133Z,22.65
2019-04-30T12:52:32.856Z,22.57
2019-04-30T12:55:00.917Z,23.00
2019-04-30T12:57:29.589Z,23.49
2019-04-30T12:59:55.904Z,23.81
2019-04-30T13:02:22.219Z,23.90
2019-04-30T13:04:49.315Z,24.06
2019-04-30T13:07:16.199Z,24.34
2019-04-30T13:09:43.095Z,23.94
2019-04-30T13:12:10.851Z,22.45
2019-04-30T13:14:51.089Z,22.95
2019-04-30T13:17:07.356Z,24.05
2019-04-30T13:19:33.802Z,24.00
2019-04-30T13:21:59.959Z,22.93
2019-04-30T13:24:26.352Z,23.49
2019-04-30T13:26:52.627Z,23.78
2019-04-30T13:29:23.526Z,23.34
2019-04-30T13:31:50.303Z,22.56
2019-04-30T13:34:24.374Z,23.90
2019-04-30T13:36:50.564Z,23.98
2019-04-30T13:39:21.364Z,24.43
2019-04-30T13:41:55.022Z,25.09
2019-04-30T13:44:24.128Z,27.10
2019-04-30T13:46:50.378Z,27.36
2019-04-30T13:49:16.581Z,25.16
2019-04-30T13:51:43.020Z,24.78
2019-04-30T13:54:09.499Z,26.83
2019-04-30T13:56:35.705Z,26.14
2019-04-30T13:59:01.972Z,27.26
2019-04-30T14:01:29.404Z,26.63
2019-04-30T14:04:00.565Z,26.39
2019-04-30T14:06:29.020Z,24.74
2019-04-30T14:08:57.328Z,26.97
2019-04-30T14:11:23.541Z,26.53
2019-04-30T14:13:49.820Z,26.17
2019-04-30T14:16:16.077Z,27.27
2019-04-30T14:18:42.291Z,26.84
2019-04-30T14:21:09.338Z,26.51
2019-04-30T14:23:35.804Z,26.40
2019-04-30T14:26:02.124Z,26.07
2019-04-30T14:28:29.195Z,25.78
2019-04-30T14:30:55.455Z,26.42
2019-04-30T14:33:25.936Z,27.14
2019-04-30T14:35:49.856Z,27.70
2019-04-30T14:38:15.983Z,28.05
2019-04-30T14:40:42.634Z,27.81
2019-04-30T14:43:11.785Z,27.96
2019-04-30T14:46:01.147Z,27.76
2019-04-30T14:48:42.913Z,28.07
2019-04-30T14:51:09.618Z,27.96
2019-04-30T14:53:46.360Z,28.20
2019-04-30T14:56:17.022Z,27.75
2019-04-30T14:58:47.885Z,28.10
2019-04-30T15:01:21.778Z,28.10
2019-04-30T15:03:49.487Z,28.45
2019-04-30T15:06:15.812Z,29.83
2019-04-30T15:08:42.008Z,30.27
2019-04-30T15:11:09.047Z,31.03
2019-04-30T15:13:35.573Z,31.12
2019-04-30T15:16:02.093Z,29.83
2019-04-30T15:18:29.042Z,29.50
2019-04-30T15:20:55.445Z,28.80
2019-04-30T15:23:23.533Z,29.58
2019-04-30T15:25:50.059Z,30.23
2019-04-30T15:28:16.218Z,30.20
2019-04-30T15:30:42.415Z,30.29
2019-04-30T15:33:25.478Z,29.73
2019-04-30T15:35:51.879Z,30.05
2019-04-30T15:38:19.346Z,30.43
2019-04-30T15:40:45.788Z,29.74
2019-04-30T15:43:12.315Z,29.12
2019-04-30T15:45:39.145Z,29.23
2019-04-30T15:48:05.430Z,28.61
2019-04-30T15:50:31.641Z,29.34
2019-04-30T15:52:58.516Z,29.57
2019-04-30T15:55:24.979Z,29.46
2019-04-30T15:58:10.123Z,28.94
2019-04-30T16:00:36.482Z,28.35
2019-04-30T16:03:04.559Z,28.24
2019-04-30T16:05:35.226Z,28.28
2019-04-30T16:08:10.124Z,28.00
2019-04-30T16:10:49.983Z,27.92
2019-04-30T16:13:19.520Z,27.44
2019-04-30T16:15:45.843Z,27.96
2019-04-30T16:18:12.146Z,28.13
2019-04-30T16:20:39.330Z,28.05
2019-04-30T16:23:05.827Z,28.40
2019-04-30T16:25:32.013Z,27.84
2019-04-30T16:27:58.197Z,26.98
2019-04-30T16:30:24.448Z,26.39
2019-04-30T16:32:50.831Z,26.11
2019-04-30T16:35:17.137Z,26.62
2019-04-30T16:37:43.288Z,26.18
2019-04-30T16:40:10.415Z,26.37
2019-04-30T16:42:38.843Z,25.73
2019-04-30T16:45:05.941Z,24.96
2019-04-30T16:47:32.133Z,25.48
2019-04-30T16:49:58.889Z,25.09
2019-04-30T16:52:25.337Z,25.55
2019-04-30T16:54:51.507Z,25.59
2019-04-30T16:57:17.682Z,24.85
2019-04-30T16:59:43.843Z,24.56
2019-04-30T17:02:10.157Z,24.54
2019-04-30T17:07:35.281Z,25.46
2019-04-30T17:10:18.918Z,25.83
2019-04-30T17:12:51.507Z,25.14
2019-04-30T17:15:24.135Z,25.51
2019-04-30T17:17:50.396Z,25.95
2019-04-30T17:20:18.527Z,26.22
2019-04-30T17:22:44.690Z,26.48
2019-04-30T17:25:10.851Z,26.71
2019-04-30T17:27:39.139Z,25.84
2019-04-30T17:30:09.094Z,25.63
2019-04-30T17:32:36.866Z,24.83
2019-04-30T17:35:04.659Z,25.23
2019-04-30T17:37:31.577Z,25.30
2019-04-30T17:39:59.048Z,24.40
2019-04-30T17:42:25.493Z,24.24
2019-04-30T17:44:58.389Z,23.65
2019-04-30T17:47:19.860Z,23.89
2019-04-30T17:49:46.066Z,23.55
2019-04-30T17:52:12.234Z,24.64
2019-04-30T17:54:38.385Z,24.35
2019-04-30T17:57:04.601Z,24.92
2019-04-30T17:59:30.744Z,25.13
2019-04-30T18:01:59.638Z,24.79
2019-04-30T18:04:26.427Z,24.63
2019-04-30T18:06:52.607Z,24.60
2019-04-30T18:09:20.608Z,25.02
2019-04-30T18:11:46.792Z,25.09
2019-04-30T18:14:12.960Z,25.25
2019-04-30T18:16:39.122Z,25.11
2019-04-30T18:19:12.781Z,25.52
2019-04-30T18:21:40.861Z,26.06
2019-04-30T18:24:14.738Z,25.62
2019-04-30T18:26:48.369Z,24.65
2019-04-30T18:29:14.650Z,24.11
2019-04-30T18:31:40.981Z,23.87
2019-04-30T18:34:09.400Z,23.79
2019-04-30T18:36:35.209Z,23.99
2019-04-30T18:39:01.400Z,24.25
2019-04-30T18:41:27.656Z,24.18
2019-04-30T18:43:54.268Z,23.94
2019-04-30T18:46:20.481Z,23.17
2019-04-30T18:48:46.634Z,22.69
2019-04-30T18:51:30.119Z,22.89
2019-04-30T18:53:40.918Z,23.22
2019-04-30T18:56:10.517Z,23.16
2019-04-30T18:58:39.836Z,22.95
2019-04-30T19:01:03.675Z,22.41
2019-04-30T19:03:29.827Z,22.76
2019-04-30T19:05:58.674Z,22.40
2019-04-30T19:08:26.913Z,22.78
2019-04-30T19:11:00.643Z,22.29
2019-04-30T19:13:29.883Z,22.53
2019-04-30T19:16:18.535Z,21.98
2019-04-30T19:18:31.158Z,22.25
2019-04-30T19:21:00.116Z,22.75
2019-04-30T19:23:26.509Z,21.93
2019-04-30T19:25:52.696Z,22.54
2019-04-30T19:28:18.971Z,22.93
2019-04-30T19:30:55.081Z,22.06
2019-04-30T19:33:13.350Z,21.98
2019-04-30T19:35:39.532Z,22.71
2019-04-30T19:38:05.782Z,22.36
2019-04-30T19:40:31.969Z,22.97
2019-04-30T19:42:58.147Z,23.35
2019-04-30T19:45:24.428Z,23.52
2019-04-30T19:47:50.622Z,23.93
2019-04-30T19:50:16.788Z,24.37
2019-04-30T19:52:42.964Z,24.18
2019-04-30T19:55:09.152Z,24.32
2019-04-30T19:57:35.340Z,24.34
2019-04-30T20:00:01.512Z,24.39
2019-04-30T20:02:29.460Z,24.39
2019-04-30T20:04:55.904Z,24.25
2019-04-30T20:07:24.332Z,24.29
2019-04-30T20:10:00.169Z,24.33
2019-04-30T20:12:21.856Z,24.53
2019-04-30T20:14:49.614Z,24.53
2019-04-30T20:17:16.132Z,24.05
2019-04-30T20:19:42.301Z,23.38
2019-04-30T20:22:10.296Z,23.67
2019-04-30T20:24:36.505Z,23.53
2019-04-30T20:27:07.146Z,23.79
2019-04-30T20:29:30.881Z,23.61
2019-04-30T20:31:58.988Z,23.80
2019-04-30T20:34:25.150Z,24.00
2019-04-30T20:36:51.304Z,23.70
2019-04-30T20:39:19.400Z,23.61
2019-04-30T20:41:45.601Z,23.75
2019-04-30T20:44:11.982Z,23.87
2019-04-30T20:46:39.299Z,24.00
2019-04-30T20:49:05.643Z,24.08
2019-04-30T20:51:31.815Z,24.19
2019-04-30T20:53:59.211Z,24.17
2019-04-30T20:56:29.128Z,23.71
2019-04-30T20:58:59.843Z,23.34
2019-04-30T21:01:23.864Z,23.60
2019-04-30T21:03:50.015Z,22.41
2019-04-30T21:06:16.210Z,22.88
2019-04-30T21:08:42.423Z,21.83
2019-04-30T21:11:09.375Z,22.13
2019-04-30T21:13:35.812Z,22.36
2019-04-30T21:16:01.995Z,22.00
2019-04-30T21:18:30.499Z,22.34
2019-04-30T21:20:56.233Z,22.56
2019-04-30T21:23:22.453Z,22.12
2019-04-30T21:25:48.901Z,22.00
2019-04-30T21:28:15.361Z,22.17
2019-04-30T21:30:41.581Z,22.23
2019-04-30T21:33:21.362Z,22.10
2019-04-30T21:35:50.776Z,22.26
2019-04-30T21:38:19.275Z,22.08
2019-04-30T21:40:45.216Z,22.41
2019-04-30T21:43:11.435Z,22.84
2019-04-30T21:45:39.857Z,22.60
2019-04-30T21:48:06.016Z,22.52
2019-04-30T21:50:32.223Z,23.46
2019-04-30T21:52:59.758Z,23.70
2019-04-30T21:55:26.173Z,23.95
2019-04-30T21:57:52.383Z,23.70
2019-04-30T22:00:36.213Z,23.98
2019-04-30T22:03:03.811Z,24.26
2019-04-30T22:05:29.986Z,24.68
2019-04-30T22:07:56.164Z,24.46
2019-04-30T22:10:22.345Z,24.32
2019-04-30T22:12:48.909Z,22.95
2019-04-30T22:15:15.182Z,23.18
2019-04-30T22:17:41.372Z,23.29
2019-04-30T22:20:09.605Z,23.78
2019-04-30T22:22:35.875Z,24.10
2019-04-30T22:25:02.288Z,24.63
2019-04-30T22:27:28.452Z,24.01
2019-04-30T22:29:54.745Z,23.44
2019-04-30T22:32:21.036Z,23.50
2019-04-30T22:34:47.624Z,23.97
2019-04-30T22:37:13.794Z,23.66
2019-04-30T22:39:41.889Z,23.61
2019-04-30T22:42:20.572Z,23.78
2019-04-30T22:44:47.194Z,23.97
2019-04-30T22:47:13.378Z,24.12
2019-04-30T22:49:39.536Z,23.81
2019-04-30T22:52:05.778Z,23.45
2019-04-30T22:54:32.046Z,23.25
2019-04-30T22:56:58.303Z,23.13
2019-04-30T22:59:24.508Z,23.68
2019-04-30T23:01:55.241Z,23.38
2019-04-30T23:04:23.321Z,22.60
2019-04-30T23:06:49.530Z,22.76
2019-04-30T23:09:15.784Z,22.86
2019-04-30T23:11:41.964Z,22.93
2019-04-30T23:14:08.156Z,22.74
2019-04-30T23:16:34.367Z,22.77
2019-04-30T23:19:00.548Z,22.65
2019-04-30T23:21:26.756Z,22.76
2019-04-30T23:23:52.918Z,22.69
2019-04-30T23:26:19.175Z,22.34
2019-04-30T23:28:45.386Z,22.45
2019-04-30T23:31:11.543Z,22.50
2019-04-30T23:33:37.725Z,22.41
2019-04-30T23:36:03.932Z,22.08
2019-04-30T23:38:30.093Z,21.65
2019-04-30T23:40:56.248Z,22.03
2019-04-30T23:43:22.466Z,22.39
2019-04-30T23:45:48.642Z,22.70
2019-04-30T23:48:14.796Z,22.08
2019-04-30T23:50:41.015Z,22.19
2019-04-30T23:53:07.170Z,22.22
2019-04-30T23:55:33.329Z,22.12
2019-04-30T23:57:59.534Z,22.63
